createdAt,value
2023-01-19T00:01:41.091Z,15.35
2023-01-19T00:03:44.056Z,20.10
2023-01-19T00:05:47.145Z,17.88
2023-01-19T00:07:50.165Z,19.10
2023-01-19T00:09:53.203Z,19.20
2023-01-19T00:11:56.207Z,16.80
2023-01-19T00:14:00.710Z,18.48
2023-01-19T00:16:03.798Z,16.90
2023-01-19T00:18:07.637Z,17.00
2023-01-19T00:20:13.636Z,13.32
2023-01-19T00:22:16.616Z,14.90
2023-01-19T00:24:19.600Z,14.73
2023-01-19T00:26:23.116Z,13.70
2023-01-19T00:28:26.162Z,14.43
2023-01-19T00:30:30.841Z,14.70
2023-01-19T00:32:33.983Z,14.75
2023-01-19T00:34:49.382Z,13.68
2023-01-19T00:36:52.376Z,13.05
2023-01-19T00:38:55.373Z,12.75
2023-01-19T00:40:58.350Z,13.27
2023-01-19T00:43:00.724Z,13.10
2023-01-19T00:45:04.273Z,13.43
2023-01-19T00:47:08.691Z,12.88
2023-01-19T00:49:12.107Z,13.65
2023-01-19T00:51:15.145Z,13.10
2023-01-19T00:53:18.266Z,12.05
2023-01-19T00:55:21.411Z,13.13
2023-01-19T00:57:24.712Z,13.15
2023-01-19T00:59:27.727Z,12.40
2023-01-19T01:01:45.591Z,13.27
2023-01-19T01:03:50.740Z,12.50
2023-01-19T01:05:53.751Z,12.50
2023-01-19T01:07:56.806Z,13.48
2023-01-19T01:10:00.032Z,12.55
2023-01-19T01:12:03.035Z,13.25
2023-01-19T01:14:06.041Z,13.57
2023-01-19T01:16:09.967Z,19.60
2023-01-19T01:18:12.968Z,14.85
2023-01-19T01:20:20.133Z,12.10
2023-01-19T01:22:23.175Z,11.90
2023-01-19T01:24:26.285Z,11.60
2023-01-19T01:26:29.537Z,13.10
2023-01-19T01:28:32.772Z,13.80
2023-01-19T01:30:40.072Z,16.85
2023-01-19T01:32:47.019Z,16.00
2023-01-19T01:34:50.034Z,15.73
2023-01-19T01:36:54.867Z,15.00
2023-01-19T01:38:57.863Z,14.10
2023-01-19T01:41:00.904Z,13.80
2023-01-19T01:43:03.964Z,13.65
2023-01-19T01:45:29.846Z,13.38
2023-01-19T01:47:36.061Z,15.40
2023-01-19T01:49:39.043Z,13.38
2023-01-19T01:51:43.763Z,13.45
2023-01-19T01:53:51.168Z,14.40
2023-01-19T01:55:56.388Z,13.70
2023-01-19T01:58:02.787Z,12.75
2023-01-19T02:00:07.442Z,13.27
2023-01-19T02:02:31.739Z,11.63
2023-01-19T02:04:35.216Z,12.15
2023-01-19T02:06:56.249Z,12.27
2023-01-19T02:09:21.523Z,11.95
2023-01-19T02:11:42.137Z,11.30
2023-01-19T02:13:45.280Z,11.43
2023-01-19T02:15:49.656Z,11.88
2023-01-19T02:17:52.849Z,10.75
2023-01-19T02:19:56.239Z,11.57
2023-01-19T02:22:04.557Z,12.18
2023-01-19T02:24:14.704Z,11.43
2023-01-19T02:26:20.076Z,11.13
2023-01-19T02:28:23.067Z,11.38
2023-01-19T02:30:26.313Z,11.10
2023-01-19T02:32:29.619Z,10.88
2023-01-19T02:34:32.776Z,10.63
2023-01-19T02:36:39.043Z,10.43
2023-01-19T02:38:42.959Z,11.15
2023-01-19T02:40:47.890Z,11.27
2023-01-19T02:42:52.129Z,10.82
2023-01-19T02:44:56.641Z,11.35
2023-01-19T02:46:59.703Z,12.10
2023-01-19T02:49:04.930Z,12.95
2023-01-19T02:51:13.646Z,13.00
2023-01-19T02:53:43.871Z,11.60
2023-01-19T02:55:51.795Z,12.65
2023-01-19T02:58:00.520Z,13.40
2023-01-19T03:00:18.847Z,13.30
2023-01-19T03:02:31.998Z,11.02
2023-01-19T03:04:45.237Z,12.07
2023-01-19T03:06:51.141Z,11.70
2023-01-19T03:08:56.976Z,11.98
2023-01-19T03:11:03.243Z,10.60
2023-01-19T03:13:12.381Z,11.18
2023-01-19T03:15:20.496Z,11.75
2023-01-19T03:17:23.606Z,11.93
2023-01-19T03:19:28.932Z,12.20
2023-01-19T03:21:32.630Z,11.40
2023-01-19T03:23:38.188Z,11.45
2023-01-19T03:25:43.964Z,11.25
2023-01-19T03:27:48.826Z,11.95
2023-01-19T03:29:54.058Z,10.65
2023-01-19T03:31:58.523Z,10.82
2023-01-19T03:34:04.439Z,10.88
2023-01-19T03:36:12.124Z,10.88
2023-01-19T03:38:17.859Z,11.15
2023-01-19T03:40:21.122Z,10.30
2023-01-19T03:42:25.268Z,11.00
2023-01-19T03:44:30.831Z,10.52
2023-01-19T03:46:34.435Z,10.10
2023-01-19T03:48:38.003Z,10.30
2023-01-19T03:50:41.068Z,10.52
2023-01-19T03:52:44.339Z,11.50
2023-01-19T03:54:48.188Z,11.30
2023-01-19T03:56:52.475Z,10.07
2023-01-19T03:58:56.344Z,10.20
2023-01-19T04:01:01.462Z,10.45
2023-01-19T04:03:04.931Z,10.43
2023-01-19T04:05:08.788Z,10.52
2023-01-19T04:07:12.314Z,10.65
2023-01-19T04:09:15.272Z,10.77
2023-01-19T04:11:18.573Z,12.50
2023-01-19T04:13:21.678Z,10.98
2023-01-19T04:15:24.637Z,12.38
2023-01-19T04:17:29.021Z,11.48
2023-01-19T04:19:32.085Z,10.70
2023-01-19T04:21:35.242Z,11.23
2023-01-19T04:23:38.227Z,10.40
2023-01-19T04:25:41.241Z,10.23
2023-01-19T04:27:44.174Z,10.35
2023-01-19T04:29:47.280Z,11.10
2023-01-19T04:31:50.290Z,10.55
2023-01-19T04:33:54.666Z,10.55
2023-01-19T04:35:57.740Z,10.05
2023-01-19T04:38:00.893Z,10.45
2023-01-19T04:40:04.433Z,10.38
2023-01-19T04:42:07.691Z,10.32
2023-01-19T04:44:10.954Z,10.10
2023-01-19T04:46:13.949Z,9.93
2023-01-19T04:48:18.503Z,9.77
2023-01-19T04:50:22.841Z,9.25
2023-01-19T04:52:25.825Z,9.60
2023-01-19T04:54:28.938Z,11.43
2023-01-19T04:56:32.050Z,11.00
2023-01-19T04:58:35.085Z,17.30
2023-01-19T05:00:38.276Z,19.08
2023-01-19T05:02:42.691Z,10.25
2023-01-19T05:04:45.629Z,10.40
2023-01-19T05:06:50.016Z,9.90
2023-01-19T05:08:53.147Z,9.27
2023-01-19T05:10:57.516Z,10.02
2023-01-19T05:13:00.837Z,10.00
2023-01-19T05:15:04.657Z,10.30
2023-01-19T05:17:07.695Z,10.75
2023-01-19T05:19:11.287Z,11.05
2023-01-19T05:21:14.523Z,10.60
2023-01-19T05:23:18.908Z,10.80
2023-01-19T05:25:22.036Z,9.70
2023-01-19T05:27:25.274Z,9.98
2023-01-19T05:29:28.482Z,10.45
2023-01-19T05:31:31.807Z,10.50
2023-01-19T05:33:34.837Z,10.32
2023-01-19T05:35:37.822Z,10.90
2023-01-19T05:37:40.996Z,11.23
2023-01-19T05:39:45.390Z,11.13
2023-01-19T05:41:48.433Z,10.23
2023-01-19T05:43:51.409Z,11.10
2023-01-19T05:45:54.445Z,11.68
2023-01-19T05:47:57.563Z,10.02
2023-01-19T05:50:00.612Z,9.60
2023-01-19T05:52:03.612Z,11.80
2023-01-19T05:54:07.240Z,10.52
2023-01-19T05:56:11.871Z,10.55
2023-01-19T05:58:15.031Z,10.15
2023-01-19T06:00:18.506Z,9.73
2023-01-19T06:02:23.169Z,10.50
2023-01-19T06:04:26.369Z,10.40
2023-01-19T06:06:29.312Z,10.65
2023-01-19T06:08:32.389Z,9.90
2023-01-19T06:10:35.413Z,10.30
2023-01-19T06:12:41.917Z,9.00
2023-01-19T06:14:45.101Z,10.43
2023-01-19T06:16:48.073Z,10.25
2023-01-19T06:18:51.089Z,9.50
2023-01-19T06:20:58.549Z,13.18
2023-01-19T06:23:02.129Z,12.18
2023-01-19T06:25:05.762Z,13.20
2023-01-19T06:27:09.193Z,10.80
2023-01-19T06:29:14.517Z,11.95
2023-01-19T06:31:17.547Z,13.48
2023-01-19T06:33:21.055Z,14.48
2023-01-19T06:35:24.048Z,18.98
2023-01-19T06:37:28.574Z,20.98
2023-01-19T06:39:31.833Z,14.68
2023-01-19T06:41:35.118Z,13.40
2023-01-19T06:43:38.095Z,12.35
2023-01-19T06:45:44.556Z,12.98
2023-01-19T06:47:48.554Z,12.50
2023-01-19T06:49:51.643Z,11.60
2023-01-19T06:51:54.639Z,11.85
2023-01-19T06:53:57.767Z,11.90
2023-01-19T06:56:01.787Z,11.27
2023-01-19T06:58:05.502Z,11.50
2023-01-19T07:00:09.833Z,12.25
2023-01-19T07:02:26.178Z,12.70
2023-01-19T07:04:31.453Z,11.32
2023-01-19T07:06:34.490Z,12.00
2023-01-19T07:08:38.492Z,10.38
2023-01-19T07:11:25.849Z,11.90
2023-01-19T07:13:04.743Z,11.52
2023-01-19T07:15:09.440Z,11.45
2023-01-19T07:17:14.873Z,12.43
2023-01-19T07:19:17.871Z,12.90
2023-01-19T07:21:21.082Z,12.02
2023-01-19T07:23:24.077Z,12.32
2023-01-19T07:25:27.929Z,13.18
2023-01-19T07:27:30.903Z,13.75
2023-01-19T07:29:34.147Z,10.73
2023-01-19T07:31:37.386Z,12.63
2023-01-19T07:33:41.821Z,11.63
2023-01-19T07:35:47.514Z,12.07
2023-01-19T07:37:50.634Z,11.55
2023-01-19T07:39:54.175Z,11.40
2023-01-19T07:41:57.414Z,10.77
2023-01-19T07:44:00.675Z,10.80
2023-01-19T07:46:05.721Z,10.68
2023-01-19T07:48:08.894Z,11.43
2023-01-19T07:50:13.973Z,11.90
2023-01-19T07:52:17.052Z,11.25
2023-01-19T07:54:20.786Z,11.40
2023-01-19T07:56:24.658Z,10.80
2023-01-19T07:58:28.096Z,10.52
2023-01-19T08:00:31.554Z,11.27
2023-01-19T08:02:35.988Z,11.73
2023-01-19T08:04:39.146Z,11.75
2023-01-19T08:06:59.476Z,11.52
2023-01-19T08:09:54.659Z,11.70
2023-01-19T08:13:00.479Z,11.18
2023-01-19T08:15:25.377Z,12.05
2023-01-19T08:18:15.776Z,11.73
2023-01-19T08:20:56.374Z,11.15
2023-01-19T08:23:18.873Z,11.13
2023-01-19T08:26:03.962Z,12.50
2023-01-19T08:28:16.231Z,13.45
2023-01-19T08:30:24.312Z,12.57
2023-01-19T08:32:41.526Z,12.40
2023-01-19T08:35:05.114Z,12.95
2023-01-19T08:37:50.783Z,12.68
2023-01-19T08:42:52.586Z,10.10
2023-01-19T08:45:06.217Z,12.32
2023-01-19T08:47:52.748Z,10.63
2023-01-19T08:50:46.059Z,12.45
2023-01-19T08:52:51.461Z,10.95
2023-01-19T08:55:32.405Z,10.90
2023-01-19T08:57:38.134Z,12.27
2023-01-19T09:06:03.428Z,13.25
2023-01-19T09:08:51.709Z,13.30
2023-01-19T09:11:38.579Z,14.48
2023-01-19T09:14:28.271Z,11.43
2023-01-19T09:17:10.516Z,12.30
2023-01-19T09:19:54.631Z,10.35
2023-01-19T09:22:21.205Z,10.80
2023-01-19T09:24:30.013Z,11.00
2023-01-19T09:26:57.935Z,11.00
2023-01-19T09:29:05.015Z,10.07
2023-01-19T09:33:39.803Z,9.10
2023-01-19T09:36:14.969Z,10.02
2023-01-19T09:38:34.478Z,9.27
2023-01-19T09:40:49.317Z,10.07
2023-01-19T09:43:21.148Z,9.95
2023-01-19T09:49:34.254Z,10.25
2023-01-19T09:52:04.346Z,9.07
2023-01-19T09:54:48.436Z,9.73
2023-01-19T09:57:03.395Z,9.85
2023-01-19T10:03:24.187Z,10.75
2023-01-19T10:06:03.839Z,10.52
2023-01-19T10:11:59.120Z,10.20
2023-01-19T10:14:33.963Z,9.88
2023-01-19T10:19:35.038Z,9.45
2023-01-19T10:22:33.723Z,9.35
2023-01-19T10:25:04.539Z,9.60
2023-01-19T10:28:28.733Z,8.85
2023-01-19T10:30:31.764Z,8.73
2023-01-19T10:32:40.970Z,7.90
2023-01-19T10:38:43.597Z,7.88
2023-01-19T10:41:46.264Z,8.57
2023-01-19T10:48:09.612Z,8.30
2023-01-19T10:57:37.430Z,7.55
2023-01-19T11:00:44.318Z,7.18
2023-01-19T11:03:22.336Z,7.15
2023-01-19T11:14:11.844Z,7.32
2023-01-19T11:20:52.632Z,7.88
2023-01-19T11:23:17.950Z,7.82
2023-01-19T11:49:52.528Z,8.00
2023-01-19T11:52:22.464Z,7.53
2023-01-19T11:58:02.623Z,7.35
2023-01-19T12:00:55.515Z,14.85
2023-01-19T12:09:41.299Z,18.42
2023-01-19T12:11:54.580Z,6.80
2023-01-19T12:14:12.557Z,6.68
2023-01-19T12:16:26.599Z,6.72
2023-01-19T12:19:00.164Z,6.72
2023-01-19T12:21:15.708Z,6.60
2023-01-19T12:23:49.573Z,6.22
2023-01-19T12:29:23.991Z,5.50
2023-01-19T12:32:18.232Z,6.38
2023-01-19T12:34:51.335Z,18.70
2023-01-19T12:41:34.253Z,6.47
2023-01-19T12:44:28.355Z,6.78
2023-01-19T12:46:32.197Z,5.90
2023-01-19T12:49:12.555Z,7.13
2023-01-19T12:51:27.417Z,9.75
2023-01-19T13:01:27.801Z,7.47
2023-01-19T13:07:17.961Z,7.88
2023-01-19T13:13:23.677Z,10.40
2023-01-19T13:15:44.887Z,13.50
2023-01-19T13:17:55.673Z,10.80
2023-01-19T13:20:36.856Z,11.30
2023-01-19T13:23:26.350Z,10.18
2023-01-19T13:31:06.167Z,11.70
2023-01-19T13:33:56.174Z,9.88
2023-01-19T13:36:30.736Z,8.73
2023-01-19T13:39:28.385Z,8.63
2023-01-19T13:41:41.183Z,8.55
2023-01-19T13:47:30.681Z,8.45
2023-01-19T13:50:07.251Z,8.60
2023-01-19T13:52:58.016Z,9.40
2023-01-19T13:58:03.119Z,8.50
2023-01-19T14:00:35.919Z,8.00
2023-01-19T14:03:22.760Z,8.02
2023-01-19T14:05:38.981Z,8.35
2023-01-19T14:08:19.389Z,8.20
2023-01-19T14:10:31.247Z,8.57
2023-01-19T14:13:10.693Z,7.85
2023-01-19T14:15:56.696Z,9.25
2023-01-19T14:18:12.084Z,8.18
2023-01-19T14:20:56.416Z,30.02
2023-01-19T14:23:59.775Z,11.55
2023-01-19T14:26:51.799Z,7.85
2023-01-19T14:33:41.551Z,16.88
2023-01-19T14:35:44.801Z,24.92
2023-01-19T14:38:39.462Z,17.50
2023-01-19T14:40:43.068Z,11.43
2023-01-19T14:42:49.358Z,8.00
2023-01-19T14:44:53.683Z,7.97
2023-01-19T14:46:58.190Z,8.32
2023-01-19T14:49:04.725Z,8.55
2023-01-19T14:51:08.032Z,7.68
2023-01-19T14:53:18.015Z,7.55
2023-01-19T14:55:24.927Z,10.63
2023-01-19T14:57:28.139Z,11.38
2023-01-19T14:59:31.326Z,9.05
2023-01-19T15:01:34.675Z,9.10
2023-01-19T15:03:44.644Z,10.73
2023-01-19T15:05:50.716Z,8.82
2023-01-19T15:07:53.834Z,8.00
2023-01-19T15:09:56.839Z,8.10
2023-01-19T15:12:00.458Z,8.55
2023-01-19T15:14:03.769Z,7.85
2023-01-19T15:16:08.867Z,9.57
2023-01-19T15:18:16.091Z,8.50
2023-01-19T15:20:21.191Z,7.38
2023-01-19T15:22:29.888Z,7.35
2023-01-19T15:24:32.933Z,20.17
2023-01-19T15:30:08.724Z,10.70
2023-01-19T15:32:24.815Z,8.30
2023-01-19T15:34:38.887Z,8.23
2023-01-19T15:37:08.353Z,7.50
2023-01-19T15:39:57.417Z,24.02
2023-01-19T15:45:12.815Z,16.42
2023-01-19T15:47:39.502Z,11.73
2023-01-19T15:49:56.604Z,26.42
2023-01-19T15:52:15.376Z,28.58
2023-01-19T15:57:08.144Z,59.35
2023-01-19T15:59:16.835Z,106.13
2023-01-19T16:01:59.233Z,73.65
2023-01-19T16:04:34.456Z,36.78
2023-01-19T16:07:07.571Z,27.88
2023-01-19T16:09:31.938Z,20.30
2023-01-19T16:11:42.620Z,22.83
2023-01-19T16:14:26.978Z,13.55
2023-01-19T16:19:36.410Z,11.02
2023-01-19T16:22:14.094Z,24.40
2023-01-19T16:24:31.525Z,17.58
2023-01-19T16:26:51.104Z,17.00
2023-01-19T16:29:20.525Z,17.10
2023-01-19T16:31:55.914Z,16.80
2023-01-19T16:34:22.808Z,14.88
2023-01-19T16:36:48.945Z,13.82
2023-01-19T16:39:04.588Z,11.98
2023-01-19T16:44:38.442Z,10.43
2023-01-19T16:46:54.699Z,9.85
2023-01-19T16:49:15.387Z,9.45
2023-01-19T16:51:57.967Z,10.48
2023-01-19T16:59:39.730Z,9.00
2023-01-19T17:02:28.273Z,8.77
2023-01-19T17:04:48.582Z,9.65
2023-01-19T17:10:01.734Z,9.98
2023-01-19T17:12:10.753Z,9.48
2023-01-19T17:14:23.932Z,9.70
2023-01-19T17:16:31.014Z,10.93
2023-01-19T17:18:42.690Z,9.45
2023-01-19T17:20:48.538Z,13.95
2023-01-19T17:23:08.264Z,11.00
2023-01-19T17:25:32.975Z,11.65
2023-01-19T17:27:42.734Z,13.20
2023-01-19T17:29:55.522Z,14.23
2023-01-19T17:35:10.452Z,11.40
2023-01-19T17:37:30.035Z,9.93
2023-01-19T17:39:59.581Z,20.10
2023-01-19T17:42:08.440Z,18.13
2023-01-19T17:44:12.217Z,15.65
2023-01-19T17:46:56.333Z,14.38
2023-01-19T17:49:16.354Z,19.50
2023-01-19T17:55:17.957Z,30.25
2023-01-19T17:57:30.110Z,34.75
2023-01-19T17:59:43.810Z,25.48
2023-01-19T18:02:13.878Z,13.40
2023-01-19T18:06:54.084Z,22.60
2023-01-19T18:09:06.420Z,23.58
2023-01-19T18:11:22.081Z,19.10
2023-01-19T18:13:28.976Z,14.70
2023-01-19T18:15:38.278Z,12.43
2023-01-19T18:17:44.632Z,12.18
2023-01-19T18:19:55.633Z,14.02
2023-01-19T18:22:00.122Z,16.05
2023-01-19T18:24:19.529Z,14.68
2023-01-19T18:26:36.804Z,15.30
2023-01-19T18:28:43.265Z,13.73
2023-01-19T18:30:53.545Z,17.27
2023-01-19T18:33:11.140Z,16.20
2023-01-19T18:35:36.177Z,12.60
2023-01-19T18:37:42.364Z,12.43
2023-01-19T18:40:11.683Z,12.95
2023-01-19T18:42:59.165Z,11.60
2023-01-19T18:45:08.119Z,11.55
2023-01-19T18:51:51.151Z,11.10
2023-01-19T18:54:00.803Z,13.65
2023-01-19T19:00:56.608Z,13.50
2023-01-19T19:03:16.448Z,14.10
2023-01-19T19:05:22.538Z,14.70
2023-01-19T19:12:11.354Z,23.23
2023-01-19T19:19:02.167Z,32.13
2023-01-19T19:21:33.271Z,26.10
2023-01-19T19:23:38.974Z,102.82
2023-01-19T19:33:13.675Z,26.88
2023-01-19T19:40:07.420Z,26.90
2023-01-19T19:42:15.083Z,29.40
2023-01-19T19:53:07.122Z,20.63
2023-01-19T20:04:33.718Z,20.98
2023-01-19T20:07:09.144Z,20.15
2023-01-19T20:13:21.075Z,48.33
2023-01-19T20:19:59.526Z,22.10
2023-01-19T20:22:31.675Z,20.88
2023-01-19T20:29:59.912Z,23.10
2023-01-19T20:32:10.656Z,20.08
2023-01-19T20:34:33.930Z,20.52
2023-01-19T20:36:37.451Z,22.65
2023-01-19T20:43:17.769Z,22.20
2023-01-19T20:53:53.177Z,26.83
2023-01-19T21:01:31.309Z,26.75
2023-01-19T21:12:03.632Z,20.58
2023-01-19T21:14:10.951Z,20.73
2023-01-19T21:16:19.194Z,18.17
2023-01-19T21:23:21.260Z,25.40
2023-01-19T21:29:58.807Z,24.90
2023-01-19T21:32:08.253Z,24.70
2023-01-19T21:34:17.846Z,23.63
2023-01-19T21:37:09.530Z,19.35
2023-01-19T21:39:22.132Z,20.02
2023-01-19T21:41:57.690Z,21.83
2023-01-19T22:00:36.251Z,13.07
2023-01-19T22:03:24.395Z,18.73
2023-01-19T22:10:16.330Z,24.17
2023-01-19T22:12:25.890Z,21.02
2023-01-19T22:19:14.590Z,48.75
2023-01-19T22:21:57.417Z,49.95
2023-01-19T22:24:09.209Z,23.20
2023-01-19T22:35:00.272Z,25.38
2023-01-19T22:37:47.992Z,26.63
2023-01-19T22:40:03.384Z,27.70
2023-01-19T22:42:18.295Z,21.45
2023-01-19T22:47:59.420Z,22.80
2023-01-19T22:50:09.897Z,24.08
2023-01-19T22:52:44.707Z,26.13
2023-01-19T22:55:10.167Z,19.30
2023-01-19T23:00:04.238Z,18.38
2023-01-19T23:02:20.751Z,17.13
2023-01-19T23:05:10.228Z,17.95
2023-01-19T23:17:15.567Z,17.55
2023-01-19T23:19:55.873Z,19.27
2023-01-19T23:22:53.248Z,19.60
2023-01-19T23:29:25.960Z,18.40
2023-01-19T23:35:13.372Z,18.63
2023-01-19T23:37:33.652Z,18.27
2023-01-19T23:46:15.804Z,17.50
